Flight Track Log - Related Links

Times and Time Zones

All times are in EDT time to prevent confusion due to time zone crossing. See the N1206N flight status page for this flight to view local times or setup timezone preferences in your user account.


Time Position Orientation Groundspeed Altitude Reporting Facility
EDT Latitude Longitude Course Direction KTS MPH feet Rate Location/Type
Sat 09:30:11 AM 39.9653 -80.3831 176° South 188 216 3,100  Level Cleveland Center
Sat 09:31:13 AM 39.9119 -80.3786 176° South 191 220 3,100 49 Level Cleveland Center
Sat 09:32:14 AM 39.8600 -80.3711 174° South 191 220 3,200 49 Climbing Cleveland Center
Sat 09:33:00 AM 39.8999 -80.2607 177° South  Level FlightAware Approximate
Sat 09:33:16 AM 39.8075 -80.3639 174° South 190 219 3,200  Level Cleveland Center
Sat 09:34:00 AM 39.8609 -80.2579 177° South  Level FlightAware Approximate
Sat 09:34:17 AM 39.7556 -80.3544 172° South 190 219 3,200  Level Cleveland Center
Sat 09:35:19 AM 39.7033 -80.3436 171° South 190 219 3,100 -49 Descending Cleveland Center
Sat 09:36:20 AM 39.6408 -80.3344 174° South 190 219 3,100 49 Level Cleveland Center
Sat 09:37:22 AM 39.6150 -80.2864 125° Southeast 191 220 3,200 290 Climbing Cleveland Center
Sat 09:38:24 AM 39.6381 -80.2331 61° Northeast 184 212 3,700 293 Climbing Cleveland Center
Sat 09:39:25 AM 39.6717 -80.2014 36° Northeast 168 193 3,800 49 Climbing Cleveland Center
Sat 09:40:27 AM 39.6992 -80.2367 315° West 168 193 3,800 49 Level Cleveland Center
Sat 09:41:28 AM 39.6617 -80.2364 180° South 167 192 3,900  Climbing Cleveland Center
Sat 09:42:30 AM 39.6217 -80.2056 149° Southeast 164 189 3,800 -49 Descending Cleveland Center
Sat 09:43:31 AM 39.5819 -80.1761 150° Southeast 164 189 3,800  Level Cleveland Center
Sat 09:44:33 AM 39.5333 -80.1419 152° Southeast 164 189 3,800  Level Cleveland Center
Sat 09:45:34 AM 39.4892 -80.1256 164° South 164 189 3,800 -49 Level Cleveland Center
Sat 09:46:36 AM 39.4481 -80.1425 198° South 163 188 3,700 -195 Descending Cleveland Center
Sat 09:47:37 AM 39.4067 -80.1703 207° Southwest 168 193 3,400 -488 Descending Cleveland Center
Sat 09:48:39 AM 39.3628 -80.1928 202° Southwest 166 191 2,700 -677 Descending Cleveland Center
Sat 09:50:00 AM 39.3115 -80.2082 193° South  Level FlightAware Approximate
Sat 09:57:00 AM 39.2976 -80.2275 177° South  Level Estimated

Login

Don't have an account? Register now (free) for customized features, flight alerts, and more!